Time;durP1;ratioP1;P1;durP2;ratioP2;P2;SDS_P1;SDS_P2;PMS_P1;PMS_P2;Temp;Humidity;BMP_temperature;BMP_pressure;BME280_temperature;BME280_humidity;BME280_pressure;Samples;Min_cycle;Max_cycle;Signal;HPM_P1;HPM_P2
2022/12/09 00:00:30;;;;;;;9.05;4.82;;;3.80;89.90;;;;;;4998793;28;20492;-65
2022/12/09 00:02:58;;;;;;;9.27;5.05;;;3.80;89.90;;;;;;4999931;28;20054;-64
2022/12/09 00:05:25;;;;;;;10.93;5.35;;;3.80;89.90;;;;;;4996094;28;20076;-61
2022/12/09 00:07:52;;;;;;;9.95;5.03;;;3.80;89.80;;;;;;4991085;28;20054;-62
2022/12/09 00:10:19;;;;;;;11.18;4.85;;;3.80;89.80;;;;;;5003734;28;20046;-63
2022/12/09 00:12:46;;;;;;;10.93;5.03;;;3.80;89.80;;;;;;5004787;28;20050;-64
2022/12/09 00:15:14;;;;;;;9.73;4.78;;;3.80;89.80;;;;;;4997948;28;20053;-70
2022/12/09 00:17:41;;;;;;;11.02;5.70;;;3.80;89.80;;;;;;4999833;28;20042;-70
2022/12/09 00:20:09;;;;;;;12.00;5.45;;;3.70;89.90;;;;;;5003268;28;20130;-69
2022/12/09 00:22:36;;;;;;;11.00;4.80;;;3.80;89.90;;;;;;5002100;28;20045;-71
2022/12/09 00:25:03;;;;;;;9.98;5.50;;;3.80;89.90;;;;;;5001004;28;20533;-69
2022/12/09 00:27:30;;;;;;;10.27;5.78;;;3.80;90.00;;;;;;5001384;28;20045;-72
2022/12/09 00:29:58;;;;;;;9.23;4.78;;;3.80;89.90;;;;;;4979640;28;20208;-70
2022/12/09 00:32:26;;;;;;;10.32;5.15;;;3.70;90.00;;;;;;4988360;28;20066;-60
2022/12/09 00:34:53;;;;;;;10.65;5.57;;;3.80;90.10;;;;;;4982811;28;20057;-60
2022/12/09 00:37:20;;;;;;;10.38;5.40;;;3.80;90.00;;;;;;5005006;28;20042;-62
2022/12/09 00:39:47;;;;;;;9.77;4.93;;;3.80;90.00;;;;;;5005440;28;20121;-62
2022/12/09 00:42:14;;;;;;;10.57;5.95;;;3.80;90.10;;;;;;5005717;28;20057;-59
2022/12/09 00:44:41;;;;;;;11.48;5.68;;;3.70;90.10;;;;;;4995244;28;20048;-59
2022/12/09 00:47:08;;;;;;;11.70;5.70;;;3.80;90.10;;;;;;5008643;28;20055;-62
2022/12/09 00:49:36;;;;;;;13.32;6.53;;;3.80;90.00;;;;;;5009610;28;20563;-61
2022/12/09 00:52:03;;;;;;;10.50;5.88;;;3.80;90.10;;;;;;5004669;28;20038;-62
2022/12/09 00:54:30;;;;;;;12.45;6.28;;;3.80;90.10;;;;;;5008721;28;20267;-60
2022/12/09 00:56:57;;;;;;;13.95;6.55;;;3.80;90.10;;;;;;5003766;28;20053;-70
2022/12/09 00:59:24;;;;;;;12.23;6.13;;;3.80;90.20;;;;;;4996029;28;20046;-72
2022/12/09 01:01:51;;;;;;;12.07;6.50;;;3.80;90.20;;;;;;5005935;28;20574;-72
2022/12/09 01:04:20;;;;;;;13.48;7.45;;;3.80;90.20;;;;;;4986216;28;20049;-71
2022/12/09 01:06:48;;;;;;;12.20;6.57;;;3.80;90.10;;;;;;5007084;28;20045;-73
2022/12/09 01:09:15;;;;;;;13.15;7.53;;;3.80;90.00;;;;;;5005549;28;20141;-72
2022/12/09 01:11:42;;;;;;;15.15;6.72;;;3.90;90.00;;;;;;4988958;28;20078;-72
2022/12/09 01:14:10;;;;;;;14.50;7.43;;;3.80;90.00;;;;;;5004633;28;20050;-71
2022/12/09 01:16:36;;;;;;;13.27;6.40;;;3.80;90.10;;;;;;4999652;28;20554;-71
2022/12/09 01:19:07;;;;;;;12.38;6.80;;;3.90;90.10;;;;;;4999826;28;20501;-72
2022/12/09 01:21:35;;;;;;;12.43;6.97;;;3.90;90.00;;;;;;4991661;28;20050;-70
2022/12/09 01:24:09;;;;;;;10.85;6.13;;;3.90;89.90;;;;;;4970583;28;20760;-71
2022/12/09 01:26:36;;;;;;;10.85;5.75;;;3.90;89.90;;;;;;5004981;28;20038;-71
2022/12/09 01:29:04;;;;;;;14.35;6.72;;;3.90;90.00;;;;;;5004400;28;20046;-72
2022/12/09 01:31:30;;;;;;;13.25;6.50;;;3.90;90.00;;;;;;5003042;28;20096;-59
2022/12/09 01:33:57;;;;;;;11.93;6.30;;;3.90;90.00;;;;;;5001189;28;20049;-58
2022/12/09 01:36:27;;;;;;;11.57;6.15;;;3.90;90.00;;;;;;4994359;28;20548;-58
2022/12/09 01:38:55;;;;;;;12.27;6.40;;;3.90;90.10;;;;;;5000169;28;20061;-58
2022/12/09 01:41:24;;;;;;;12.77;6.05;;;3.90;90.00;;;;;;5000073;28;20038;-58
2022/12/09 01:44:17;;;;;;;10.25;5.82;;;3.90;89.90;;;;;;4997274;28;20703;-58
2022/12/09 01:46:45;;;;;;;11.32;6.00;;;3.90;89.80;;;;;;5006195;28;20069;-57
2022/12/09 01:49:16;;;;;;;11.05;5.82;;;3.90;89.90;;;;;;4998085;28;20053;-59
2022/12/09 01:51:46;;;;;;;11.60;5.65;;;3.90;89.90;;;;;;5001022;28;20053;-64
2022/12/09 01:54:15;;;;;;;12.30;5.97;;;3.90;90.00;;;;;;4984195;28;20062;-62
2022/12/09 01:56:45;;;;;;;13.63;7.57;;;3.90;90.10;;;;;;4999378;28;20104;-62
2022/12/09 01:59:15;;;;;;;15.25;6.75;;;3.90;90.10;;;;;;5002640;28;20097;-62
2022/12/09 02:01:44;;;;;;;12.75;6.45;;;3.90;90.00;;;;;;4984051;28;20034;-62
2022/12/09 02:04:11;;;;;;;13.07;6.90;;;3.90;90.10;;;;;;4999183;28;20049;-61
2022/12/09 02:06:39;;;;;;;13.13;6.95;;;3.90;90.10;;;;;;4984686;28;20382;-60
2022/12/09 02:09:09;;;;;;;;;;;3.90;90.10;;;;;;4999302;28;20052;-62
2022/12/09 02:11:50;;;;;;;12.25;6.25;;;3.90;90.10;;;;;;4975242;28;19925;-62
2022/12/09 02:14:24;;;;;;;14.02;7.13;;;3.90;90.10;;;;;;4980047;28;20073;-61
2022/12/09 02:17:07;;;;;;;12.43;7.18;;;3.90;90.10;;;;;;4998591;28;20057;-62
2022/12/09 02:19:51;;;;;;;15.63;7.90;;;3.90;90.10;;;;;;4980495;28;20480;-61
2022/12/09 02:22:24;;;;;;;14.57;7.25;;;3.90;90.10;;;;;;5000209;28;20073;-62
2022/12/09 02:24:59;;;;;;;14.40;7.90;;;3.90;90.10;;;;;;4991047;28;20547;-61
2022/12/09 02:27:33;;;;;;;13.15;6.88;;;3.90;90.10;;;;;;4995113;28;21505;-62
2022/12/09 02:30:08;;;;;;;13.68;6.75;;;3.90;90.10;;;;;;4966275;28;20065;-62
2022/12/09 02:33:04;;;;;;;14.98;7.10;;;3.90;90.10;;;;;;4991773;28;20381;-62
2022/12/09 02:35:38;;;;;;;11.70;6.75;;;3.90;90.20;;;;;;4991418;28;20082;-62
2022/12/09 02:38:11;;;;;;;11.35;6.85;;;3.90;90.20;;;;;;5006388;28;20046;-62
2022/12/09 02:40:44;;;;;;;15.82;7.25;;;3.90;90.20;;;;;;5005177;28;20069;-63
2022/12/09 02:43:13;;;;;;;14.55;7.70;;;3.90;90.20;;;;;;5008871;28;20531;-62
2022/12/09 02:45:42;;;;;;;13.98;6.57;;;3.90;90.20;;;;;;4984459;28;20615;-62
2022/12/09 02:48:11;;;;;;;14.02;7.40;;;3.90;90.30;;;;;;4978796;28;20135;-63
2022/12/09 02:50:42;;;;;;;11.90;6.55;;;3.90;90.30;;;;;;4977724;28;20521;-62
2022/12/09 02:53:13;;;;;;;11.88;6.47;;;3.90;90.30;;;;;;4999091;28;20137;-61
2022/12/09 02:55:44;;;;;;;12.68;7.43;;;3.80;90.40;;;;;;5002178;28;20068;-63
2022/12/09 02:58:11;;;;;;;11.50;6.30;;;3.80;90.40;;;;;;5002204;28;20507;-62
2022/12/09 03:00:40;;;;;;;12.93;6.88;;;3.90;90.40;;;;;;4985682;28;20045;-63
2022/12/09 03:03:15;;;;;;;14.15;6.97;;;3.90;90.40;;;;;;5002283;28;20440;-62
2022/12/09 03:05:51;;;;;;;11.38;6.20;;;3.90;90.40;;;;;;5006060;28;20062;-63
2022/12/09 03:08:28;;;;;;;13.57;6.40;;;3.90;90.20;;;;;;5005899;28;20046;-61
2022/12/09 03:10:59;;;;;;;16.27;7.00;;;3.90;90.10;;;;;;5001038;28;23017;-62
2022/12/09 03:13:38;;;;;;;11.95;5.88;;;3.90;90.10;;;;;;5005926;28;20428;-62
2022/12/09 03:16:10;;;;;;;11.15;5.93;;;3.90;90.10;;;;;;5003638;28;20480;-64
2022/12/09 03:18:41;;;;;;;13.80;6.28;;;3.90;90.10;;;;;;5007326;28;20049;-62
2022/12/09 03:21:11;;;;;;;13.07;6.35;;;3.80;90.10;;;;;;5007865;28;20149;-62
2022/12/09 03:23:38;;;;;;;14.18;6.25;;;3.80;90.10;;;;;;5009693;28;20046;-64
2022/12/09 03:26:06;;;;;;;10.52;6.32;;;3.80;90.20;;;;;;5002432;28;20061;-62
2022/12/09 03:28:38;;;;;;;11.57;6.00;;;3.80;90.20;;;;;;5006148;28;20481;-63
2022/12/09 03:31:08;;;;;;;11.02;6.20;;;3.80;90.20;;;;;;5009250;28;20042;-61
2022/12/09 03:33:35;;;;;;;12.52;6.68;;;3.70;90.20;;;;;;5002223;28;20050;-62
2022/12/09 03:36:06;;;;;;;13.23;6.43;;;3.80;90.00;;;;;;5005220;28;20056;-62
2022/12/09 03:38:38;;;;;;;12.55;6.28;;;3.70;90.00;;;;;;5004592;28;20435;-62
2022/12/09 03:41:10;;;;;;;10.32;5.75;;;3.70;89.90;;;;;;5004996;28;20052;-62
2022/12/09 03:43:42;;;;;;;11.32;5.40;;;3.80;89.90;;;;;;5005806;28;20052;-63
2022/12/09 03:46:10;;;;;;;10.73;5.70;;;3.80;89.80;;;;;;5006855;28;20092;-59
2022/12/09 03:48:37;;;;;;;12.15;6.03;;;3.70;89.80;;;;;;5006991;28;20034;-59
2022/12/09 03:51:08;;;;;;;11.98;5.88;;;3.70;89.70;;;;;;5005657;28;20070;-73
2022/12/09 03:53:42;;;;;;;10.68;5.75;;;3.70;89.70;;;;;;5004474;28;20299;-71
2022/12/09 03:56:14;;;;;;;12.68;5.90;;;3.70;89.80;;;;;;5002814;28;20053;-63
2022/12/09 03:58:43;;;;;;;11.15;5.75;;;3.70;89.60;;;;;;5002012;28;20050;-63
2022/12/09 04:01:10;;;;;;;10.65;6.13;;;3.70;89.60;;;;;;4996142;28;20141;-62
2022/12/09 04:03:38;;;;;;;10.40;5.60;;;3.80;89.60;;;;;;5006148;28;20042;-62
2022/12/09 04:06:05;;;;;;;13.57;5.97;;;3.70;89.50;;;;;;5000925;28;20049;-59
2022/12/09 04:08:32;;;;;;;11.07;5.82;;;3.70;89.40;;;;;;5001119;28;20062;-59
2022/12/09 04:11:00;;;;;;;11.85;6.10;;;3.70;89.40;;;;;;5001730;28;20054;-63
2022/12/09 04:13:29;;;;;;;10.82;6.07;;;3.70;89.40;;;;;;5001532;28;20089;-63
2022/12/09 04:15:58;;;;;;;12.05;6.45;;;3.70;89.40;;;;;;5011517;28;20053;-61
2022/12/09 04:18:26;;;;;;;11.02;5.70;;;3.60;89.60;;;;;;5016392;28;20050;-61
2022/12/09 04:20:52;;;;;;;11.43;6.28;;;3.60;89.50;;;;;;5013066;28;20084;-65
2022/12/09 04:23:19;;;;;;;10.05;5.82;;;3.60;89.50;;;;;;5006462;28;20042;-65
2022/12/09 04:25:46;;;;;;;11.75;6.13;;;3.60;89.40;;;;;;5005718;28;20073;-64
2022/12/09 04:28:15;;;;;;;10.10;5.43;;;3.50;89.20;;;;;;5006451;28;20046;-64
2022/12/09 04:30:45;;;;;;;12.20;5.93;;;3.50;89.30;;;;;;5005442;28;20448;-61
2022/12/09 04:33:12;;;;;;;9.75;5.07;;;3.50;89.30;;;;;;5004478;28;20050;-61
2022/12/09 04:35:39;;;;;;;11.18;5.85;;;3.50;89.20;;;;;;5010366;28;20052;-61
2022/12/09 04:38:05;;;;;;;10.45;5.05;;;3.50;89.10;;;;;;5008267;28;20076;-62
2022/12/09 04:40:33;;;;;;;11.85;6.05;;;3.50;89.00;;;;;;5003274;28;20122;-61
2022/12/09 04:43:00;;;;;;;11.48;5.90;;;3.50;88.90;;;;;;5007051;28;20060;-62
2022/12/09 04:45:28;;;;;;;12.68;6.10;;;3.50;88.80;;;;;;5004601;28;20510;-62
2022/12/09 04:47:55;;;;;;;11.30;5.90;;;3.40;88.70;;;;;;5005235;28;20056;-62
2022/12/09 04:50:22;;;;;;;12.25;6.30;;;3.40;88.70;;;;;;5006932;28;20100;-65
2022/12/09 04:52:49;;;;;;;9.98;5.20;;;3.40;88.70;;;;;;5006264;28;20046;-65
2022/12/09 04:55:16;;;;;;;10.75;6.15;;;3.40;88.60;;;;;;5007613;28;20060;-60
2022/12/09 04:57:43;;;;;;;11.02;5.57;;;3.40;88.60;;;;;;5008687;28;20054;-60
2022/12/09 05:00:14;;;;;;;8.95;5.55;;;3.30;88.60;;;;;;5009096;28;20042;-71
2022/12/09 05:02:42;;;;;;;11.05;5.53;;;3.30;88.70;;;;;;5007310;28;20046;-71
2022/12/09 05:05:12;;;;;;;11.60;6.07;;;3.20;88.80;;;;;;5006423;28;20053;-71
2022/12/09 05:07:39;;;;;;;10.77;5.57;;;3.20;89.00;;;;;;5009160;28;20068;-67
2022/12/09 05:10:07;;;;;;;10.30;5.18;;;3.20;89.10;;;;;;5005940;28;20472;-66
2022/12/09 05:12:34;;;;;;;13.27;6.10;;;3.20;89.10;;;;;;5002307;28;20046;-65
2022/12/09 05:15:02;;;;;;;12.00;5.63;;;3.20;89.10;;;;;;5008314;28;20177;-65
2022/12/09 05:17:29;;;;;;;11.05;5.47;;;3.20;89.10;;;;;;5003297;28;20065;-65
2022/12/09 05:19:57;;;;;;;11.40;6.43;;;3.20;89.00;;;;;;5004866;28;20124;-65
2022/12/09 05:22:24;;;;;;;11.27;6.00;;;3.20;89.00;;;;;;5004483;28;20058;-70
2022/12/09 05:24:51;;;;;;;14.98;6.68;;;3.20;89.00;;;;;;5006085;28;20072;-71
2022/12/09 05:27:18;;;;;;;12.75;6.32;;;3.20;88.90;;;;;;5006343;28;20069;-60
2022/12/09 05:29:45;;;;;;;11.60;5.90;;;3.20;88.90;;;;;;5005202;28;20049;-60
2022/12/09 05:32:12;;;;;;;12.60;5.88;;;3.20;88.90;;;;;;5006507;28;20051;-60
2022/12/09 05:34:39;;;;;;;12.50;6.60;;;3.20;88.80;;;;;;5003458;28;20050;-59
2022/12/09 05:37:12;;;;;;;10.55;5.55;;;3.20;88.80;;;;;;5005031;28;20088;-71
2022/12/09 05:39:39;;;;;;;11.60;6.43;;;3.20;88.80;;;;;;5004605;28;20053;-72
2022/12/09 05:42:06;;;;;;;12.07;6.40;;;3.10;88.90;;;;;;5007422;28;20504;-59
2022/12/09 05:44:33;;;;;;;12.70;6.68;;;3.10;88.80;;;;;;5006545;28;20042;-60
2022/12/09 05:46:59;;;;;;;15.32;7.75;;;3.10;88.70;;;;;;4995352;28;20046;-66
2022/12/09 05:49:30;;;;;;;12.73;7.30;;;3.10;88.80;;;;;;5006694;28;20092;-65
2022/12/09 05:51:57;;;;;;;13.10;7.05;;;3.10;88.70;;;;;;5004812;28;20484;-60
2022/12/09 05:54:26;;;;;;;14.10;7.50;;;3.10;88.70;;;;;;5006571;28;20093;-60
2022/12/09 05:56:53;;;;;;;13.52;6.97;;;3.10;88.80;;;;;;4998513;28;20053;-65
2022/12/09 05:59:19;;;;;;;12.23;6.72;;;3.10;88.70;;;;;;5009073;28;20108;-66
2022/12/09 06:01:46;;;;;;;15.02;7.38;;;3.10;88.70;;;;;;4995649;28;20050;-71
2022/12/09 06:04:13;;;;;;;11.00;6.57;;;3.10;88.70;;;;;;5001189;28;20053;-70
2022/12/09 06:06:40;;;;;;;10.68;5.80;;;3.10;88.60;;;;;;5003507;28;20054;-63
2022/12/09 06:09:10;;;;;;;12.68;6.60;;;3.10;88.70;;;;;;5000498;28;20425;-62
2022/12/09 06:11:39;;;;;;;13.98;7.03;;;3.10;88.70;;;;;;5000752;28;20078;-72
2022/12/09 06:14:08;;;;;;;13.05;6.78;;;3.10;88.70;;;;;;4998466;28;20084;-70
2022/12/09 06:16:35;;;;;;;14.20;6.22;;;3.10;88.70;;;;;;5008439;28;20570;-65
2022/12/09 06:19:02;;;;;;;13.13;6.80;;;3.10;88.60;;;;;;5002624;28;20535;-64
2022/12/09 06:21:29;;;;;;;12.70;6.30;;;3.00;88.70;;;;;;4990988;28;20060;-71
2022/12/09 06:23:56;;;;;;;12.90;6.22;;;3.00;88.60;;;;;;5004032;28;20046;-70
2022/12/09 06:26:25;;;;;;;13.95;6.57;;;3.00;88.50;;;;;;5006025;28;20049;-59
2022/12/09 06:28:55;;;;;;;10.77;5.82;;;3.00;88.50;;;;;;5006011;28;20050;-59
2022/12/09 06:31:22;;;;;;;11.38;6.18;;;3.00;88.30;;;;;;5002304;28;20046;-60
2022/12/09 06:33:50;;;;;;;11.93;6.80;;;3.00;88.30;;;;;;5003661;28;20068;-59
2022/12/09 06:36:17;;;;;;;13.20;6.20;;;2.90;88.20;;;;;;5004429;28;20052;-61
2022/12/09 06:38:43;;;;;;;11.13;5.53;;;2.90;88.20;;;;;;4998103;28;20046;-58
2022/12/09 06:41:12;;;;;;;12.55;6.75;;;2.90;88.20;;;;;;5009143;28;20046;-61
2022/12/09 06:43:40;;;;;;;13.02;6.05;;;2.90;88.30;;;;;;5001556;28;20061;-60
2022/12/09 06:46:13;;;;;;;12.82;6.80;;;2.90;88.40;;;;;;5007046;28;20060;-61
2022/12/09 06:48:40;;;;;;;13.43;6.95;;;2.80;88.60;;;;;;5005037;28;20073;-61
2022/12/09 06:51:07;;;;;;;13.30;7.15;;;2.80;88.50;;;;;;5004557;28;20147;-61
2022/12/09 06:53:35;;;;;;;11.75;6.43;;;2.80;88.30;;;;;;5002447;28;20049;-61
2022/12/09 06:56:02;;;;;;;11.80;6.65;;;2.80;88.20;;;;;;5002526;28;20038;-60
2022/12/09 06:58:29;;;;;;;13.15;6.95;;;2.70;88.10;;;;;;5005526;28;20382;-60
2022/12/09 07:01:03;;;;;;;11.88;6.15;;;2.70;88.10;;;;;;5005108;28;20130;-59
2022/12/09 07:03:33;;;;;;;12.15;6.22;;;2.70;88.10;;;;;;5005555;28;20400;-60
2022/12/09 07:06:00;;;;;;;12.48;6.47;;;2.70;87.80;;;;;;5008849;28;20064;-62
2022/12/09 07:08:28;;;;;;;12.98;6.18;;;2.70;87.80;;;;;;5004467;28;20135;-60
2022/12/09 07:10:55;;;;;;;13.02;6.72;;;2.70;87.70;;;;;;5011188;28;20484;-59
2022/12/09 07:13:23;;;;;;;12.70;6.55;;;2.80;87.60;;;;;;5006603;28;20049;-59
2022/12/09 07:15:50;;;;;;;13.13;5.97;;;2.70;87.60;;;;;;5005033;28;20141;-60
2022/12/09 07:18:17;;;;;;;12.23;6.47;;;2.70;87.60;;;;;;5005106;28;20125;-61
2022/12/09 07:20:46;;;;;;;10.50;5.47;;;2.70;87.60;;;;;;5005374;28;20133;-70
2022/12/09 07:23:13;;;;;;;11.80;6.63;;;2.80;87.90;;;;;;5006550;28;20147;-71
2022/12/09 07:25:40;;;;;;;13.52;6.47;;;2.80;87.80;;;;;;5006007;28;20061;-61
2022/12/09 07:28:06;;;;;;;13.05;6.65;;;2.80;87.90;;;;;;5008711;28;20516;-61
2022/12/09 07:30:36;;;;;;;12.75;6.50;;;2.80;87.70;;;;;;5008344;28;20050;-60
2022/12/09 07:33:03;;;;;;;13.30;6.47;;;2.80;87.60;;;;;;5006059;28;20071;-60
2022/12/09 07:35:30;;;;;;;10.55;5.75;;;2.80;87.40;;;;;;4996569;28;20045;-61
2022/12/09 07:37:58;;;;;;;11.68;6.32;;;2.70;87.30;;;;;;5001855;28;20046;-62
2022/12/09 07:40:28;;;;;;;11.68;6.45;;;2.80;87.10;;;;;;4999669;28;20078;-60
2022/12/09 07:42:55;;;;;;;13.82;7.43;;;2.70;87.20;;;;;;5001681;28;20045;-60
2022/12/09 07:45:22;;;;;;;13.57;7.20;;;2.70;87.30;;;;;;5002605;28;20073;-62
2022/12/09 07:47:49;;;;;;;15.38;7.05;;;2.60;87.40;;;;;;5012768;28;20475;-67
2022/12/09 07:50:16;;;;;;;12.55;5.97;;;2.70;87.40;;;;;;5005371;28;20052;-59
2022/12/09 07:52:43;;;;;;;11.65;6.93;;;2.60;87.50;;;;;;5008864;28;20904;-60
2022/12/09 07:55:11;;;;;;;13.05;6.25;;;2.60;87.60;;;;;;5004445;28;20453;-60
2022/12/09 07:57:38;;;;;;;12.73;6.50;;;2.60;87.90;;;;;;5009730;28;20042;-73
2022/12/09 08:00:06;;;;;;;12.60;7.07;;;2.60;88.00;;;;;;5008071;28;20412;-71
2022/12/09 08:02:38;;;;;;;11.10;6.22;;;2.70;88.10;;;;;;5010020;28;20077;-72
2022/12/09 08:05:06;;;;;;;12.80;6.15;;;2.60;88.20;;;;;;5009816;28;20054;-73
2022/12/09 08:07:34;;;;;;;11.43;6.47;;;2.70;88.20;;;;;;5008492;28;20046;-72
2022/12/09 08:10:01;;;;;;;11.23;6.40;;;2.70;88.20;;;;;;5006223;28;20045;-72
2022/12/09 08:12:30;;;;;;;13.82;7.10;;;2.70;88.30;;;;;;5008388;28;20431;-70
2022/12/09 08:14:57;;;;;;;13.68;7.07;;;2.70;88.10;;;;;;5006619;28;20501;-72
2022/12/09 08:17:25;;;;;;;13.18;7.22;;;2.70;88.20;;;;;;5007308;28;20082;-59
2022/12/09 08:19:52;;;;;;;13.07;6.85;;;2.70;88.20;;;;;;5001077;28;20054;-61
2022/12/09 08:22:19;;;;;;;12.10;6.50;;;2.70;88.20;;;;;;5002190;28;20488;-63
2022/12/09 08:24:46;;;;;;;13.63;6.95;;;2.70;88.00;;;;;;5006140;28;20416;-61
2022/12/09 08:27:13;;;;;;;13.80;7.97;;;2.80;87.90;;;;;;5002673;28;20141;-64
2022/12/09 08:29:41;;;;;;;12.38;7.18;;;2.80;87.90;;;;;;4998710;28;20481;-63
2022/12/09 08:32:08;;;;;;;14.15;7.07;;;2.80;87.70;;;;;;5009270;28;20050;-71
2022/12/09 08:34:35;;;;;;;12.75;6.82;;;2.70;87.50;;;;;;5005332;28;20045;-71
2022/12/09 08:37:02;;;;;;;16.92;7.07;;;2.70;87.50;;;;;;5001058;28;20046;-61
2022/12/09 08:39:30;;;;;;;14.95;6.85;;;2.70;87.40;;;;;;5000734;28;20077;-60
2022/12/09 08:41:56;;;;;;;13.20;6.65;;;2.70;87.50;;;;;;4998494;28;20128;-65
2022/12/09 08:44:23;;;;;;;12.05;6.30;;;2.70;87.40;;;;;;5003838;28;20050;-66
2022/12/09 08:46:52;;;;;;;13.60;7.03;;;2.70;87.20;;;;;;5005860;28;20050;-72
2022/12/09 08:49:22;;;;;;;12.48;6.72;;;2.70;87.30;;;;;;5006494;28;20052;-70
2022/12/09 08:51:51;;;;;;;13.77;6.97;;;2.70;87.20;;;;;;5000197;28;20058;-60
2022/12/09 08:54:18;;;;;;;14.32;6.90;;;2.70;87.00;;;;;;5005449;28;20910;-59
2022/12/09 08:56:49;;;;;;;12.15;6.30;;;2.80;87.00;;;;;;5000562;28;20046;-60
2022/12/09 08:59:16;;;;;;;11.65;6.18;;;2.70;87.00;;;;;;4998389;28;20065;-61
2022/12/09 09:01:43;;;;;;;12.15;6.53;;;2.70;87.00;;;;;;4993438;28;20096;-63
2022/12/09 09:04:15;;;;;;;12.23;6.28;;;2.70;86.80;;;;;;4991324;28;20034;-63
2022/12/09 09:06:44;;;;;;;13.55;6.57;;;2.80;86.70;;;;;;4999909;28;20109;-63
2022/12/09 09:09:12;;;;;;;13.23;7.57;;;2.80;86.70;;;;;;5000313;28;20054;-63
2022/12/09 09:11:40;;;;;;;12.60;6.60;;;2.80;86.50;;;;;;4995149;28;20054;-60
2022/12/09 09:14:09;;;;;;;12.93;6.60;;;2.80;86.40;;;;;;4997049;28;20057;-61
2022/12/09 09:16:38;;;;;;;13.25;6.47;;;2.70;86.40;;;;;;5003428;28;20042;-59
2022/12/09 09:19:05;;;;;;;13.80;7.00;;;2.80;86.50;;;;;;4997652;28;20136;-60
2022/12/09 09:21:34;;;;;;;11.65;6.15;;;2.80;86.40;;;;;;4994132;28;20048;-60
2022/12/09 09:24:01;;;;;;;13.43;5.88;;;2.80;86.30;;;;;;4995822;28;20055;-61
2022/12/09 09:26:30;;;;;;;12.90;7.05;;;2.90;86.30;;;;;;4998474;28;20414;-59
2022/12/09 09:28:57;;;;;;;14.07;6.95;;;2.80;86.40;;;;;;4997336;28;20049;-59
2022/12/09 09:31:24;;;;;;;11.65;5.78;;;2.80;86.30;;;;;;5000709;28;20049;-61
2022/12/09 09:33:52;;;;;;;12.05;6.53;;;2.90;86.10;;;;;;5004136;28;20041;-63
2022/12/09 09:36:22;;;;;;;15.27;7.40;;;2.90;85.90;;;;;;5003370;28;20060;-71
2022/12/09 09:38:52;;;;;;;13.07;6.95;;;2.90;86.00;;;;;;5005879;28;20054;-72
2022/12/09 09:41:26;;;;;;;14.30;7.45;;;2.90;86.00;;;;;;5006226;28;20080;-61
2022/12/09 09:43:55;;;;;;;11.80;6.13;;;3.00;85.90;;;;;;5005183;28;20047;-62
2022/12/09 09:46:31;;;;;;;10.90;5.90;;;2.90;85.80;;;;;;4992513;28;20053;-72
2022/12/09 09:49:00;;;;;;;11.80;5.45;;;3.00;85.80;;;;;;5000259;28;20572;-72
2022/12/09 09:51:27;;;;;;;11.98;6.40;;;3.00;85.80;;;;;;5000555;28;20047;-60
2022/12/09 09:53:56;;;;;;;10.55;5.43;;;3.00;85.90;;;;;;5001545;28;20684;-60
2022/12/09 09:56:28;;;;;;;12.30;6.53;;;3.00;85.80;;;;;;5005280;28;20121;-61
2022/12/09 09:59:03;;;;;;;12.50;6.18;;;3.10;85.70;;;;;;5006812;28;20054;-60
2022/12/09 10:01:34;;;;;;;10.55;5.85;;;3.00;85.60;;;;;;5007519;28;20068;-72
2022/12/09 10:04:07;;;;;;;10.05;5.90;;;3.00;85.90;;;;;;4996253;28;20058;-71
2022/12/09 10:06:42;;;;;;;11.20;6.38;;;3.00;85.30;;;;;;5005006;28;20046;-69
2022/12/09 10:09:17;;;;;;;11.38;5.40;;;3.00;85.60;;;;;;5002269;28;20046;-72
2022/12/09 10:11:55;;;;;;;11.35;6.32;;;3.10;85.40;;;;;;4997812;28;20046;-60
2022/12/09 10:14:32;;;;;;;11.98;5.82;;;3.00;85.30;;;;;;5006528;28;20443;-61
2022/12/09 10:17:12;;;;;;;12.57;5.95;;;3.00;85.40;;;;;;4999909;28;20141;-61
2022/12/09 10:19:44;;;;;;;13.20;6.60;;;3.00;85.30;;;;;;5000519;28;20428;-63
2022/12/09 10:22:14;;;;;;;12.73;6.10;;;3.00;85.20;;;;;;4999447;28;20085;-72
2022/12/09 10:24:48;;;;;;;11.27;6.22;;;3.10;85.20;;;;;;4998733;28;20648;-72
2022/12/09 10:27:26;;;;;;;10.25;5.55;;;3.10;85.20;;;;;;5004470;28;20054;-60
2022/12/09 10:29:58;;;;;;;11.93;6.35;;;3.10;85.40;;;;;;5001290;28;20406;-59
2022/12/09 10:32:27;;;;;;;11.02;6.15;;;3.20;85.10;;;;;;4994551;28;20060;-62
2022/12/09 10:34:54;;;;;;;9.90;5.60;;;3.10;85.10;;;;;;4999103;28;20054;-62
2022/12/09 10:37:27;;;;;;;11.50;6.55;;;3.20;85.10;;;;;;5004701;28;20062;-62
2022/12/09 10:40:01;;;;;;;9.35;5.40;;;3.20;85.00;;;;;;4995805;28;20342;-62
2022/12/09 10:45:16;;;;;;;10.63;5.50;;;3.10;85.00;;;;;;5000668;28;20046;-61
2022/12/09 10:47:50;;;;;;;10.98;5.60;;;3.20;85.10;;;;;;4999165;28;20057;-60
2022/12/09 10:50:32;;;;;;;10.73;6.35;;;3.20;85.20;;;;;;5002759;28;20467;-60
2022/12/09 10:53:05;;;;;;;11.90;5.85;;;3.20;84.80;;;;;;4998225;28;20509;-59
2022/12/09 10:55:36;;;;;;;11.75;5.50;;;3.30;84.90;;;;;;5005579;28;20057;-63
2022/12/09 10:58:15;;;;;;;11.18;6.10;;;3.30;85.10;;;;;;5002373;28;20046;-64
2022/12/09 11:00:42;;;;;;;9.70;5.00;;;3.30;84.90;;;;;;5002996;28;20038;-71
2022/12/09 11:03:25;;;;;;;9.05;4.97;;;3.30;84.70;;;;;;5001934;28;20042;-73
2022/12/09 11:05:58;;;;;;;13.13;5.15;;;3.30;84.80;;;;;;4999378;28;20054;-72
2022/12/09 11:08:25;;;;;;;10.23;5.13;;;3.30;84.90;;;;;;5005665;28;20124;-70
2022/12/09 11:10:54;;;;;;;11.35;4.90;;;3.40;84.90;;;;;;5000624;28;20049;-72
2022/12/09 11:13:28;;;;;;;12.80;5.53;;;3.40;84.70;;;;;;4998471;28;20511;-70
2022/12/09 11:15:59;;;;;;;8.93;5.38;;;3.40;84.70;;;;;;5005312;28;20053;-65
2022/12/09 11:18:29;;;;;;;10.93;5.40;;;3.40;84.90;;;;;;5005423;28;20500;-66
2022/12/09 11:20:58;;;;;;;10.43;5.93;;;3.50;84.90;;;;;;5002623;28;20053;-61
2022/12/09 11:23:25;;;;;;;12.32;5.85;;;3.50;84.80;;;;;;5005032;28;20876;-64
2022/12/09 11:25:55;;;;;;;9.45;4.90;;;3.50;84.80;;;;;;5008952;28;20041;-66
2022/12/09 11:28:25;;;;;;;10.43;5.80;;;3.60;84.80;;;;;;5008641;28;20495;-67
2022/12/09 11:30:55;;;;;;;11.60;5.68;;;3.60;84.80;;;;;;5003704;28;20049;-62
2022/12/09 11:33:26;;;;;;;10.45;5.63;;;3.50;84.80;;;;;;5000753;28;20523;-60
2022/12/09 11:35:57;;;;;;;11.35;6.40;;;3.50;84.80;;;;;;5000021;28;20401;-71
2022/12/09 11:38:35;;;;;;;9.88;5.65;;;3.50;84.70;;;;;;4994584;28;20133;-71
2022/12/09 11:44:20;;;;;;;10.52;5.53;;;3.50;84.40;;;;;;4972113;28;20180;-61
2022/12/09 11:46:55;;;;;;;11.30;5.90;;;3.50;84.30;;;;;;5008130;28;20404;-61
2022/12/09 11:49:22;;;;;;;11.48;5.85;;;3.50;84.40;;;;;;5004910;28;20046;-61
2022/12/09 11:52:01;;;;;;;12.68;6.10;;;3.60;84.40;;;;;;5006532;28;20054;-71
2022/12/09 11:54:37;;;;;;;12.32;6.15;;;3.50;84.50;;;;;;5002829;28;20042;-72
2022/12/09 11:57:14;;;;;;;13.43;5.97;;;3.60;84.20;;;;;;5004694;28;20477;-63
2022/12/09 11:59:47;;;;;;;13.30;6.50;;;3.60;84.30;;;;;;5000863;28;20044;-64
2022/12/09 12:02:25;;;;;;;11.07;5.85;;;3.60;84.50;;;;;;5000464;28;20051;-66
2022/12/09 12:04:58;;;;;;;11.40;5.93;;;3.50;84.40;;;;;;5008221;28;20046;-65
2022/12/09 12:07:36;;;;;;;10.32;5.80;;;3.60;84.20;;;;;;4996446;28;20048;-62
2022/12/09 12:10:09;;;;;;;11.27;5.88;;;3.60;84.40;;;;;;5005176;28;20594;-61
2022/12/09 12:12:43;;;;;;;12.73;6.05;;;3.70;84.30;;;;;;5002600;28;20525;-62
2022/12/09 12:15:16;;;;;;;13.75;6.18;;;3.70;84.40;;;;;;4977310;28;20043;-59
2022/12/09 12:17:48;;;;;;;12.43;6.20;;;3.60;84.50;;;;;;4986801;28;20416;-60
2022/12/09 12:20:16;;;;;;;10.05;5.78;;;3.60;84.50;;;;;;4987329;28;20464;-71
2022/12/09 12:23:06;;;;;;;11.55;5.90;;;3.70;84.50;;;;;;4986011;28;20068;-71
2022/12/09 12:25:45;;;;;;;11.20;6.38;;;3.60;84.60;;;;;;4983075;28;20571;-62
2022/12/09 12:28:25;;;;;;;12.73;7.07;;;3.70;84.70;;;;;;4979195;28;20046;-62
2022/12/09 12:30:57;;;;;;;13.13;6.53;;;3.60;84.80;;;;;;4984353;28;20129;-61
2022/12/09 12:33:41;;;;;;;11.00;5.97;;;3.60;84.70;;;;;;4983367;28;20072;-61
2022/12/09 12:36:15;;;;;;;10.90;5.78;;;3.60;84.90;;;;;;4984229;28;20066;-73
2022/12/09 12:38:56;;;;;;;13.50;6.65;;;3.60;84.80;;;;;;4987235;28;20051;-72
2022/12/09 12:41:31;;;;;;;9.80;6.22;;;3.60;84.60;;;;;;4986472;28;20051;-60
2022/12/09 12:47:04;;;;;;;11.68;6.45;;;3.50;84.20;;;;;;4989492;28;20054;-71
2022/12/09 12:49:45;;;;;;;11.65;7.05;;;3.50;84.40;;;;;;4986323;28;20101;-71
2022/12/09 12:52:25;;;;;;;11.65;6.35;;;3.50;84.60;;;;;;4988728;28;20579;-60
2022/12/09 12:55:05;;;;;;;13.20;6.32;;;3.50;84.30;;;;;;4987775;28;20046;-60
2022/12/09 12:57:37;;;;;;;11.27;6.78;;;3.50;84.50;;;;;;4986639;28;20038;-60
2022/12/09 13:00:11;;;;;;;11.10;6.57;;;3.50;84.10;;;;;;4973024;28;20530;-61
2022/12/09 13:02:45;;;;;;;11.13;6.20;;;3.50;84.30;;;;;;4985593;28;20046;-61
2022/12/09 13:05:20;;;;;;;9.90;5.63;;;3.50;84.50;;;;;;4977524;28;20468;-60
2022/12/09 13:07:51;;;;;;;9.75;5.38;;;3.50;84.20;;;;;;4980204;28;20038;-62
2022/12/09 13:10:24;;;;;;;10.93;6.10;;;3.50;84.10;;;;;;4985910;28;20055;-62